createdAt,value
2022-10-02T00:00:16.828Z,96935.56
2022-10-02T00:02:57.098Z,96935.72
2022-10-02T00:06:00.395Z,96941.22
2022-10-02T00:08:40.075Z,96937.41
2022-10-02T00:11:22.776Z,96946.38
2022-10-02T00:13:56.499Z,96941.91
2022-10-02T00:16:50.540Z,96951.72
2022-10-02T00:19:19.931Z,96955.34
2022-10-02T00:22:24.683Z,96956.22
2022-10-02T00:25:24.331Z,96964.88
2022-10-02T00:28:03.499Z,96950.78
2022-10-02T00:30:44.797Z,96963.53
2022-10-02T00:33:41.169Z,96958.19
2022-10-02T00:36:26.376Z,96957.66
2022-10-02T00:38:59.433Z,96956.31
2022-10-02T00:42:11.156Z,96968.75
2022-10-02T00:45:01.251Z,96962.59
2022-10-02T00:47:46.458Z,96980.63
2022-10-02T00:51:10.219Z,96983.34
2022-10-02T00:54:04.366Z,96987.28
2022-10-02T00:56:42.690Z,96993.66
2022-10-02T00:59:19.043Z,96997.00
2022-10-02T01:02:11.284Z,96999.16
2022-10-02T01:04:41.263Z,96993.81
2022-10-02T01:07:11.719Z,96993.28
2022-10-02T01:09:40.034Z,96996.19
2022-10-02T01:12:08.292Z,96998.81
2022-10-02T01:14:39.166Z,96989.59
2022-10-02T01:17:21.614Z,96998.59
2022-10-02T01:19:49.967Z,97003.88
2022-10-02T01:22:45.669Z,97000.00
2022-10-02T01:25:13.583Z,97005.22
2022-10-02T01:27:41.163Z,96999.38
2022-10-02T01:30:14.264Z,97005.19
2022-10-02T01:33:01.834Z,97007.59
2022-10-02T01:35:34.268Z,97008.66
2022-10-02T01:38:07.439Z,97019.03
2022-10-02T01:40:39.873Z,97012.25
2022-10-02T01:43:19.528Z,97025.53
2022-10-02T01:46:14.752Z,97033.09
2022-10-02T01:49:05.772Z,97036.44
2022-10-02T01:52:04.070Z,97044.09
2022-10-02T01:55:03.068Z,97047.28
2022-10-02T01:58:00.491Z,97036.50
2022-10-02T02:00:42.627Z,97050.78
2022-10-02T02:03:42.299Z,97055.09
2022-10-02T02:06:24.642Z,97050.94
2022-10-02T02:09:17.259Z,97063.88
2022-10-02T02:12:40.141Z,97065.19
2022-10-02T02:15:26.150Z,97069.66
2022-10-02T02:17:59.843Z,97069.94
2022-10-02T02:20:38.722Z,97081.72
2022-10-02T02:23:14.174Z,97080.91
2022-10-02T02:25:46.063Z,97083.56
2022-10-02T02:28:18.772Z,97092.56
2022-10-02T02:30:50.546Z,97091.50
2022-10-02T02:33:43.329Z,97085.44
2022-10-02T02:36:16.883Z,97090.72
2022-10-02T02:38:56.644Z,97091.38
2022-10-02T02:41:33.070Z,97098.00
2022-10-02T02:44:11.924Z,97096.19
2022-10-02T02:47:05.371Z,97099.97
2022-10-02T02:49:44.433Z,97110.53
2022-10-02T02:52:40.635Z,97108.50
2022-10-02T02:55:18.505Z,97106.94
2022-10-02T02:58:12.164Z,97103.50
2022-10-02T03:00:39.885Z,97110.66
2022-10-02T03:03:07.272Z,97112.25
2022-10-02T03:05:38.191Z,97117.53
2022-10-02T03:08:22.338Z,97127.59
2022-10-02T03:11:15.671Z,97118.63
2022-10-02T03:13:55.123Z,97123.63
2022-10-02T03:16:37.165Z,97127.59
2022-10-02T03:19:13.124Z,97129.41
2022-10-02T03:21:54.469Z,97132.88
2022-10-02T03:24:39.411Z,97138.44
2022-10-02T03:27:20.913Z,97140.53
2022-10-02T03:30:02.581Z,97133.91
2022-10-02T03:32:32.187Z,97134.63
2022-10-02T03:35:01.495Z,97142.81
2022-10-02T03:37:29.444Z,97135.59
2022-10-02T03:40:01.919Z,97143.50
2022-10-02T03:42:34.869Z,97146.88
2022-10-02T03:45:02.711Z,97144.22
2022-10-02T03:47:30.292Z,97146.34
2022-10-02T03:49:57.522Z,97151.63
2022-10-02T03:52:25.580Z,97155.59
2022-10-02T03:55:04.845Z,97149.50
2022-10-02T03:57:34.822Z,97149.75
2022-10-02T04:00:13.110Z,97148.69
2022-10-02T04:02:55.449Z,97155.25
2022-10-02T04:05:38.709Z,97154.47
2022-10-02T04:08:49.457Z,97167.19
2022-10-02T04:11:33.598Z,97168.53
2022-10-02T04:14:12.769Z,97162.22
2022-10-02T04:17:02.176Z,97158.22
2022-10-02T04:19:48.981Z,97164.28
2022-10-02T04:22:43.366Z,97167.44
2022-10-02T04:25:19.737Z,97168.47
2022-10-02T04:28:20.068Z,97182.00
2022-10-02T04:30:47.387Z,97174.31
2022-10-02T04:33:19.959Z,97187.50
2022-10-02T04:36:17.606Z,97189.69
2022-10-02T04:39:19.362Z,97189.13
2022-10-02T04:42:58.686Z,97196.47
2022-10-02T04:45:52.444Z,97194.16
2022-10-02T04:48:37.619Z,97207.63
2022-10-02T04:51:29.257Z,97209.97
2022-10-02T04:54:29.693Z,97221.66
2022-10-02T04:57:25.468Z,97213.72
2022-10-02T05:00:04.595Z,97230.09
2022-10-02T05:03:23.946Z,97235.34
2022-10-02T05:06:21.505Z,97245.13
2022-10-02T05:09:06.472Z,97238.22
2022-10-02T05:12:41.914Z,97234.78
2022-10-02T05:15:20.329Z,97232.66
2022-10-02T05:18:36.162Z,97245.38
2022-10-02T05:21:37.147Z,97246.38
2022-10-02T05:24:30.350Z,97249.03
2022-10-02T05:27:25.024Z,97250.00
2022-10-02T05:30:13.931Z,97255.06
2022-10-02T05:33:17.406Z,97258.72
2022-10-02T05:36:18.054Z,97263.38
2022-10-02T05:39:07.423Z,97263.81
2022-10-02T05:41:56.135Z,97265.66
2022-10-02T05:44:58.863Z,97266.97
2022-10-02T05:47:32.536Z,97269.56
2022-10-02T05:50:31.836Z,97271.53
2022-10-02T05:53:04.250Z,97274.72
2022-10-02T05:55:39.408Z,97271.69
2022-10-02T05:58:24.313Z,97279.00
2022-10-02T06:01:11.253Z,97279.91
2022-10-02T06:03:56.845Z,97286.03
2022-10-02T06:06:44.281Z,97280.94
2022-10-02T06:09:20.409Z,97289.59
2022-10-02T06:12:01.662Z,97295.50
2022-10-02T06:14:59.323Z,97290.41
2022-10-02T06:17:33.476Z,97299.88
2022-10-02T06:20:34.012Z,97298.13
2022-10-02T06:23:16.483Z,97308.56
2022-10-02T06:26:10.007Z,97299.91
2022-10-02T06:28:56.909Z,97309.31
2022-10-02T06:31:41.437Z,97318.91
2022-10-02T06:34:12.909Z,97329.44
2022-10-02T06:37:07.289Z,97331.00
2022-10-02T06:40:21.513Z,97329.00
2022-10-02T06:43:32.193Z,97322.38
2022-10-02T06:46:14.823Z,97333.03
2022-10-02T06:48:48.332Z,97326.91
2022-10-02T06:51:44.469Z,97324.19
2022-10-02T06:54:32.680Z,97328.22
2022-10-02T06:57:43.571Z,97341.72
2022-10-02T07:00:18.230Z,97342.63
2022-10-02T07:03:27.398Z,97340.16
2022-10-02T07:06:29.977Z,97346.44
2022-10-02T07:09:21.375Z,97345.19
2022-10-02T07:12:14.003Z,97336.00
2022-10-02T07:15:10.182Z,97337.59
2022-10-02T07:17:54.385Z,97341.38
2022-10-02T07:21:09.298Z,97352.84
2022-10-02T07:23:52.109Z,97351.53
2022-10-02T07:26:24.954Z,97362.16
2022-10-02T07:29:35.964Z,97363.88
2022-10-02T07:32:37.824Z,97363.16
2022-10-02T07:35:51.941Z,97364.56
2022-10-02T07:38:45.016Z,97361.97
2022-10-02T07:42:06.220Z,97371.34
2022-10-02T07:45:16.725Z,97376.88
2022-10-02T07:48:25.180Z,97365.41
2022-10-02T07:51:45.043Z,97376.00
2022-10-02T07:54:45.628Z,97369.66
2022-10-02T07:57:40.067Z,97373.38
2022-10-02T08:00:16.936Z,97381.31
2022-10-02T08:03:00.298Z,97379.19
2022-10-02T08:05:45.746Z,97371.19
2022-10-02T08:08:23.986Z,97377.66
2022-10-02T08:11:09.475Z,97373.84
2022-10-02T08:13:48.515Z,97371.56
2022-10-02T08:16:20.241Z,97367.25
2022-10-02T08:19:01.701Z,97363.19
2022-10-02T08:21:34.434Z,97356.75
2022-10-02T08:24:10.961Z,97358.72
2022-10-02T08:26:43.060Z,97360.50
2022-10-02T08:29:31.084Z,97360.84
2022-10-02T08:31:58.807Z,97358.94
2022-10-02T08:34:26.472Z,97357.34
2022-10-02T08:37:21.557Z,97353.84
2022-10-02T08:40:29.547Z,97340.19
2022-10-02T08:43:11.349Z,97344.56
2022-10-02T08:46:09.365Z,97344.81
2022-10-02T08:49:33.846Z,97328.94
2022-10-02T08:52:20.332Z,97324.28
2022-10-02T08:55:30.176Z,97316.69
2022-10-02T08:58:23.998Z,97318.53
2022-10-02T09:01:21.071Z,97320.34
2022-10-02T09:04:13.031Z,97310.41
2022-10-02T09:07:08.131Z,97312.75
2022-10-02T09:09:47.135Z,97317.47
2022-10-02T09:12:28.961Z,97310.91
2022-10-02T09:15:25.443Z,97323.56
2022-10-02T09:18:56.614Z,97323.91
2022-10-02T09:22:06.207Z,97308.59
2022-10-02T09:24:43.298Z,97316.78
2022-10-02T09:27:59.489Z,97309.53
2022-10-02T09:31:11.816Z,97319.44
2022-10-02T09:34:22.305Z,97310.09
2022-10-02T09:37:28.692Z,97322.16
2022-10-02T09:40:27.493Z,97323.13
2022-10-02T09:43:31.980Z,97310.81
2022-10-02T09:46:26.894Z,97310.00
2022-10-02T09:49:42.429Z,97303.66
2022-10-02T09:52:32.368Z,97295.66
2022-10-02T09:55:37.185Z,97298.94
2022-10-02T09:58:30.876Z,97298.94
2022-10-02T10:02:04.479Z,97303.97
2022-10-02T10:05:09.358Z,97292.00
2022-10-02T10:08:05.776Z,97289.81
2022-10-02T10:10:38.312Z,97274.13
2022-10-02T10:13:53.096Z,97271.59
2022-10-02T10:16:53.814Z,97278.75
2022-10-02T10:20:05.514Z,97270.78
2022-10-02T10:23:09.344Z,97273.09
2022-10-02T10:26:10.749Z,97286.09
2022-10-02T10:29:00.947Z,97272.22
2022-10-02T10:32:34.287Z,97280.59
2022-10-02T10:35:47.610Z,97284.53
2022-10-02T10:38:33.033Z,97283.91
2022-10-02T10:41:22.357Z,97273.06
2022-10-02T10:44:52.415Z,97274.53
2022-10-02T10:47:58.299Z,97268.88
2022-10-02T10:51:02.974Z,97269.41
2022-10-02T10:54:22.936Z,97263.91
2022-10-02T10:57:16.826Z,97261.78
2022-10-02T11:00:22.837Z,97260.25
2022-10-02T11:03:00.510Z,97259.91
2022-10-02T11:06:04.758Z,97267.63
2022-10-02T11:08:43.549Z,97261.94
2022-10-02T11:11:58.496Z,97260.91
2022-10-02T11:14:59.347Z,97258.19
2022-10-02T11:17:32.310Z,97256.94
2022-10-02T11:20:20.799Z,97257.97
2022-10-02T11:23:22.650Z,97258.38
2022-10-02T11:26:21.413Z,97245.28
2022-10-02T11:29:16.900Z,97248.81
2022-10-02T11:32:14.313Z,97252.22
2022-10-02T11:35:28.634Z,97255.19
2022-10-02T11:38:26.375Z,97254.66
2022-10-02T11:41:25.242Z,97253.31
2022-10-02T11:44:11.926Z,97243.41
2022-10-02T11:47:11.416Z,97232.66
2022-10-02T11:49:47.922Z,97241.00
2022-10-02T11:52:30.521Z,97239.84
2022-10-02T11:55:22.377Z,97247.91
2022-10-02T11:57:55.464Z,97241.84
2022-10-02T12:01:08.149Z,97233.63
2022-10-02T12:03:57.362Z,97232.81
2022-10-02T12:06:48.815Z,97237.63
2022-10-02T12:09:34.424Z,97235.22
2022-10-02T12:12:38.949Z,97236.91
2022-10-02T12:15:38.156Z,97225.94
2022-10-02T12:18:48.742Z,97220.63
2022-10-02T12:21:49.338Z,97225.09
2022-10-02T12:25:05.802Z,97210.94
2022-10-02T12:28:14.773Z,97212.66
2022-10-02T12:31:26.229Z,97214.34
2022-10-02T12:34:23.430Z,97216.44
2022-10-02T12:37:17.415Z,97214.06
2022-10-02T12:39:47.689Z,97206.09
2022-10-02T12:43:00.203Z,97196.91
2022-10-02T12:45:44.150Z,97187.75
2022-10-02T12:48:38.616Z,97181.69
2022-10-02T12:51:23.761Z,97184.53
2022-10-02T12:54:25.904Z,97180.28
2022-10-02T12:57:50.888Z,97177.97
2022-10-02T13:00:53.035Z,97178.41
2022-10-02T13:04:26.702Z,97161.03
2022-10-02T13:07:08.460Z,97172.16
2022-10-02T13:10:19.261Z,97164.63
2022-10-02T13:13:17.570Z,97163.25
2022-10-02T13:16:23.053Z,97155.00
2022-10-02T13:19:23.629Z,97157.38
2022-10-02T13:22:09.526Z,97148.34
2022-10-02T13:25:21.298Z,97145.63
2022-10-02T13:28:31.336Z,97141.88
2022-10-02T13:31:10.250Z,97132.34
2022-10-02T13:34:07.235Z,97141.06
2022-10-02T13:37:01.778Z,97136.53
2022-10-02T13:39:58.697Z,97134.94
2022-10-02T13:43:10.598Z,97129.00
2022-10-02T13:46:13.438Z,97124.56
2022-10-02T13:48:48.797Z,97128.81
2022-10-02T13:52:07.201Z,97132.44
2022-10-02T13:55:21.024Z,97131.00
2022-10-02T13:57:58.194Z,97120.84
2022-10-02T14:00:37.460Z,97122.75
2022-10-02T14:03:51.800Z,97111.59
2022-10-02T14:07:01.580Z,97115.34
2022-10-02T14:09:57.661Z,97105.16
2022-10-02T14:13:07.931Z,97110.97
2022-10-02T14:16:09.745Z,97110.47
2022-10-02T14:19:24.291Z,97100.28
2022-10-02T14:22:33.960Z,97100.03
2022-10-02T14:25:32.056Z,97107.25
2022-10-02T14:28:07.954Z,97100.66
2022-10-02T14:30:55.813Z,97098.94
2022-10-02T14:34:24.691Z,97091.16
2022-10-02T14:37:55.372Z,97092.34
2022-10-02T14:40:25.570Z,97084.81
2022-10-02T14:43:06.499Z,97085.31
2022-10-02T14:46:18.564Z,97087.38
2022-10-02T14:49:17.135Z,97078.28
2022-10-02T14:52:29.040Z,97069.53
2022-10-02T14:55:28.231Z,97080.00
2022-10-02T14:58:36.005Z,97055.25
2022-10-02T15:01:27.237Z,97068.53
2022-10-02T15:04:15.002Z,97065.31
2022-10-02T15:06:53.714Z,97065.03
2022-10-02T15:09:42.441Z,97062.31
2022-10-02T15:12:35.843Z,97050.75
2022-10-02T15:15:46.876Z,97061.00
2022-10-02T15:18:57.476Z,97052.84
2022-10-02T15:22:19.837Z,97053.25
2022-10-02T15:25:17.012Z,97053.84
2022-10-02T15:28:35.822Z,97058.69
2022-10-02T15:31:35.860Z,97061.59
2022-10-02T15:34:15.070Z,97061.06
2022-10-02T15:37:04.767Z,97053.19
2022-10-02T15:39:55.680Z,97063.84
2022-10-02T15:42:48.033Z,97072.41
2022-10-02T15:45:36.462Z,97068.31
2022-10-02T15:48:27.632Z,97072.03
2022-10-02T15:51:24.632Z,97060.91
2022-10-02T15:54:14.653Z,97063.66
2022-10-02T15:57:07.520Z,97058.16
2022-10-02T15:59:57.625Z,97067.66
2022-10-02T16:02:56.710Z,97071.59
2022-10-02T16:05:38.961Z,97070.13
2022-10-02T16:08:39.914Z,97068.66
2022-10-02T16:11:19.276Z,97064.16
2022-10-02T16:14:32.894Z,97059.59
2022-10-02T16:17:24.290Z,97055.50
2022-10-02T16:20:35.348Z,97058.63
2022-10-02T16:23:31.716Z,97058.34
2022-10-02T16:26:39.250Z,97063.34
2022-10-02T16:29:21.367Z,97066.31
2022-10-02T16:32:14.741Z,97068.94
2022-10-02T16:35:22.434Z,97068.75
2022-10-02T16:39:02.559Z,97069.16
2022-10-02T16:42:13.769Z,97068.38
2022-10-02T16:45:05.758Z,97070.91
2022-10-02T16:48:06.582Z,97073.19
2022-10-02T16:51:08.574Z,97067.00
2022-10-02T16:53:45.542Z,97065.44
2022-10-02T16:56:33.700Z,97067.00
2022-10-02T16:59:31.822Z,97068.84
2022-10-02T17:02:18.019Z,97069.75
2022-10-02T17:05:16.575Z,97067.78
2022-10-02T17:08:22.847Z,97068.16
2022-10-02T17:11:06.745Z,97062.78
2022-10-02T17:13:58.671Z,97072.59
2022-10-02T17:17:23.142Z,97074.44
2022-10-02T17:20:24.014Z,97070.34
2022-10-02T17:22:59.501Z,97075.81
2022-10-02T17:25:48.670Z,97085.75
2022-10-02T17:28:28.306Z,97081.63
2022-10-02T17:31:01.608Z,97080.44
2022-10-02T17:33:40.788Z,97082.03
2022-10-02T17:36:33.469Z,97089.19
2022-10-02T17:39:33.193Z,97086.25
2022-10-02T17:42:32.700Z,97096.66
2022-10-02T17:45:36.744Z,97099.31
2022-10-02T17:48:30.161Z,97092.41
2022-10-02T17:51:50.845Z,97103.06
2022-10-02T17:55:08.864Z,97092.59
2022-10-02T17:57:48.445Z,97093.06
2022-10-02T18:00:24.007Z,97085.66
2022-10-02T18:03:18.540Z,97088.72
2022-10-02T18:06:07.056Z,97082.34
2022-10-02T18:09:37.171Z,97084.59
2022-10-02T18:12:19.154Z,97083.22
2022-10-02T18:15:23.253Z,97084.94
2022-10-02T18:18:18.378Z,97078.63
2022-10-02T18:20:58.776Z,97083.13
2022-10-02T18:23:38.024Z,97086.75
2022-10-02T18:26:23.931Z,97091.03
2022-10-02T18:29:18.171Z,97085.44
2022-10-02T18:32:11.350Z,97084.97
2022-10-02T18:35:25.525Z,97090.84
2022-10-02T18:38:43.192Z,97101.28
2022-10-02T18:42:16.700Z,97099.28
2022-10-02T18:45:08.842Z,97100.34
2022-10-02T18:47:51.209Z,97099.59
2022-10-02T18:50:51.023Z,97102.84
2022-10-02T18:53:46.197Z,97107.50
2022-10-02T18:56:20.109Z,97101.34
2022-10-02T18:59:27.670Z,97107.16
2022-10-02T19:02:22.190Z,97102.84
2022-10-02T19:05:16.858Z,97105.56
2022-10-02T19:07:58.214Z,97110.47
2022-10-02T19:10:39.731Z,97107.63
2022-10-02T19:13:17.743Z,97105.25
2022-10-02T19:15:48.753Z,97101.31
2022-10-02T19:18:23.250Z,97108.69
2022-10-02T19:21:03.306Z,97117.59
2022-10-02T19:23:38.018Z,97125.28
2022-10-02T19:26:26.534Z,97137.50
2022-10-02T19:29:20.061Z,97177.44
2022-10-02T19:31:47.565Z,97170.91
2022-10-02T19:34:27.753Z,97174.34
2022-10-02T19:37:05.378Z,97172.59
2022-10-02T19:39:41.326Z,97166.22
2022-10-02T19:42:25.385Z,97165.16
2022-10-02T19:45:26.965Z,97163.59
2022-10-02T19:48:08.346Z,97154.44
2022-10-02T19:50:51.852Z,97166.63
2022-10-02T19:53:34.987Z,97167.66
2022-10-02T19:56:17.681Z,97168.47
2022-10-02T19:58:51.608Z,97172.50
2022-10-02T20:01:26.773Z,97164.84
2022-10-02T20:03:59.680Z,97167.38
2022-10-02T20:06:40.425Z,97170.56
2022-10-02T20:09:42.806Z,97167.66
2022-10-02T20:12:30.334Z,97172.44
2022-10-02T20:15:15.880Z,97179.31
2022-10-02T20:17:44.053Z,97185.41
2022-10-02T20:20:16.755Z,97178.72
2022-10-02T20:22:55.682Z,97191.41
2022-10-02T20:25:31.009Z,97189.00
2022-10-02T20:28:21.206Z,97196.00
2022-10-02T20:30:55.551Z,97190.41
2022-10-02T20:33:31.595Z,97189.75
2022-10-02T20:36:29.295Z,97193.91
2022-10-02T20:39:15.028Z,97192.84
2022-10-02T20:42:15.050Z,97187.75
2022-10-02T20:44:42.878Z,97191.81
2022-10-02T20:48:04.475Z,97192.41
2022-10-02T20:50:46.110Z,97196.84
2022-10-02T20:53:38.155Z,97192.13
2022-10-02T20:56:27.086Z,97194.63
2022-10-02T20:59:27.133Z,97192.09
2022-10-02T21:02:21.850Z,97192.66
2022-10-02T21:05:31.179Z,97195.69
2022-10-02T21:08:34.889Z,97194.84
2022-10-02T21:11:36.308Z,97198.91
2022-10-02T21:14:25.419Z,97198.91
2022-10-02T21:17:32.169Z,97208.38
2022-10-02T21:20:59.546Z,97206.91
2022-10-02T21:24:14.943Z,97214.06
2022-10-02T21:27:22.734Z,97202.25
2022-10-02T21:30:24.086Z,97198.84
2022-10-02T21:33:05.981Z,97198.97
2022-10-02T21:36:03.598Z,97200.72
2022-10-02T21:38:57.979Z,97197.16
2022-10-02T21:42:10.512Z,97190.22
2022-10-02T21:45:08.065Z,97192.47
2022-10-02T21:48:24.507Z,97195.34
2022-10-02T21:51:38.926Z,97195.94
2022-10-02T21:55:12.922Z,97198.75
2022-10-02T21:58:10.539Z,97200.84
2022-10-02T22:01:25.819Z,97207.31
2022-10-02T22:04:35.294Z,97212.06
2022-10-02T22:07:31.416Z,97218.78
2022-10-02T22:10:25.675Z,97212.00
2022-10-02T22:13:28.245Z,97220.75
2022-10-02T22:16:26.202Z,97225.91
2022-10-02T22:19:09.948Z,97224.66
2022-10-02T22:21:53.688Z,97225.16
2022-10-02T22:25:03.294Z,97224.19
2022-10-02T22:27:56.785Z,97229.97
2022-10-02T22:30:30.751Z,97230.53
2022-10-02T22:33:38.626Z,97229.50
2022-10-02T22:36:14.983Z,97234.56
2022-10-02T22:38:49.349Z,97231.84
2022-10-02T22:41:16.478Z,97234.56
2022-10-02T22:44:10.859Z,97234.81
2022-10-02T22:46:53.591Z,97234.31
2022-10-02T22:49:44.924Z,97231.66
2022-10-02T22:52:42.874Z,97233.81
2022-10-02T22:55:34.144Z,97234.00
2022-10-02T22:58:29.504Z,97228.81
2022-10-02T23:01:18.632Z,97234.94
2022-10-02T23:04:00.433Z,97240.22
2022-10-02T23:07:02.279Z,97242.63
2022-10-02T23:09:50.781Z,97228.31
2022-10-02T23:12:40.354Z,97235.16
2022-10-02T23:15:32.836Z,97235.41
2022-10-02T23:18:26.774Z,97235.19
2022-10-02T23:21:33.089Z,97230.47
2022-10-02T23:24:12.297Z,97223.88
2022-10-02T23:27:02.970Z,97226.72
2022-10-02T23:29:59.420Z,97229.63
2022-10-02T23:32:37.334Z,97238.31
2022-10-02T23:35:33.705Z,97256.81
2022-10-02T23:38:35.069Z,97277.13
2022-10-02T23:41:40.593Z,97271.19
2022-10-02T23:44:20.469Z,97266.16
2022-10-02T23:46:50.607Z,97266.47
2022-10-02T23:49:40.585Z,97262.50
2022-10-02T23:52:33.922Z,97250.34
2022-10-02T23:55:09.919Z,97254.56
2022-10-02T23:58:01.302Z,97260.47
